createdAt,value
2022-10-14T00:03:21.029Z,49.75
2022-10-14T00:08:57.009Z,50.03
2022-10-14T00:12:19.905Z,44.00
2022-10-14T00:15:32.517Z,46.38
2022-10-14T00:18:45.247Z,45.40
2022-10-14T00:21:48.678Z,47.55
2022-10-14T00:25:20.185Z,43.20
2022-10-14T00:35:25.808Z,50.53
2022-10-14T00:41:54.851Z,58.22
2022-10-14T00:48:52.068Z,56.72
2022-10-14T00:56:15.667Z,57.03
2022-10-14T00:59:33.734Z,59.75
2022-10-14T01:02:51.604Z,61.90
2022-10-14T01:09:30.831Z,60.50
2022-10-14T01:20:31.306Z,67.93
2022-10-14T01:24:00.209Z,59.13
2022-10-14T01:27:38.984Z,71.10
2022-10-14T01:31:04.490Z,63.60
2022-10-14T01:34:09.898Z,64.70
2022-10-14T01:38:00.853Z,67.47
2022-10-14T01:41:58.174Z,62.90
2022-10-14T01:48:59.266Z,62.00
2022-10-14T01:55:41.642Z,66.18
2022-10-14T01:59:24.870Z,61.17
2022-10-14T02:03:10.913Z,57.22
2022-10-14T02:06:30.758Z,61.75
2022-10-14T02:10:02.010Z,54.65
2022-10-14T02:13:14.672Z,55.67
2022-10-14T02:16:27.680Z,65.80
2022-10-14T02:19:31.428Z,54.67
2022-10-14T02:22:52.914Z,60.28
2022-10-14T02:26:19.392Z,58.72
2022-10-14T02:29:27.900Z,63.75
2022-10-14T02:39:55.804Z,63.90
2022-10-14T02:49:55.344Z,62.20
2022-10-14T02:53:22.589Z,61.67
2022-10-14T02:57:00.278Z,65.88
2022-10-14T03:00:17.811Z,59.33
2022-10-14T03:13:32.880Z,55.67
2022-10-14T03:16:56.785Z,58.88
2022-10-14T03:20:22.866Z,56.00
2022-10-14T03:23:56.295Z,55.13
2022-10-14T03:27:32.372Z,59.20
2022-10-14T03:32:23.232Z,54.83
2022-10-14T03:35:26.332Z,53.03
2022-10-14T03:38:39.458Z,59.00
2022-10-14T03:42:07.592Z,50.47
2022-10-14T03:45:42.092Z,59.53
2022-10-14T03:48:58.451Z,59.40
2022-10-14T03:51:59.187Z,60.05
2022-10-14T03:55:20.657Z,60.97
2022-10-14T03:58:37.669Z,57.28
2022-10-14T04:01:58.773Z,60.67
2022-10-14T04:05:21.674Z,64.13
2022-10-14T04:09:10.201Z,58.40
2022-10-14T04:15:53.261Z,58.05
2022-10-14T04:22:09.738Z,65.95
2022-10-14T04:25:45.235Z,62.53
2022-10-14T04:29:14.088Z,59.45
2022-10-14T04:32:51.140Z,67.90
2022-10-14T04:39:47.176Z,62.15
2022-10-14T04:43:46.255Z,61.40
2022-10-14T04:50:17.536Z,65.30
2022-10-14T04:53:49.513Z,69.20
2022-10-14T05:01:23.402Z,73.07
2022-10-14T05:05:14.398Z,69.28
2022-10-14T05:08:21.282Z,75.90
2022-10-14T05:11:49.303Z,68.00
2022-10-14T05:15:09.038Z,68.20
2022-10-14T05:22:01.403Z,62.30
2022-10-14T05:25:30.556Z,60.85
2022-10-14T05:28:49.005Z,56.83
2022-10-14T05:32:11.311Z,69.18
2022-10-14T05:35:53.543Z,64.97
2022-10-14T05:38:21.247Z,65.70
2022-10-14T05:40:55.063Z,64.53
2022-10-14T05:43:29.349Z,67.05
2022-10-14T05:46:00.322Z,70.90
2022-10-14T05:48:28.816Z,65.13
2022-10-14T05:51:01.457Z,71.65
2022-10-14T05:53:30.591Z,68.68
2022-10-14T05:56:04.507Z,75.40
2022-10-14T05:58:32.964Z,73.05
2022-10-14T06:01:01.957Z,68.45
2022-10-14T06:03:30.422Z,75.18
2022-10-14T06:09:13.427Z,73.32
2022-10-14T06:11:43.152Z,71.43
2022-10-14T06:14:11.419Z,77.80
2022-10-14T06:16:39.731Z,75.78
2022-10-14T06:19:07.988Z,70.57
2022-10-14T06:21:36.233Z,68.13
2022-10-14T06:24:05.113Z,81.80
2022-10-14T06:26:33.351Z,80.15
2022-10-14T06:29:03.078Z,77.85
2022-10-14T06:31:32.595Z,79.93
2022-10-14T06:34:01.292Z,74.15
2022-10-14T06:36:29.639Z,71.97
2022-10-14T06:38:57.899Z,66.10
2022-10-14T06:41:26.908Z,74.03
2022-10-14T06:43:55.122Z,60.92
2022-10-14T06:46:28.370Z,58.42
2022-10-14T06:48:56.553Z,54.47
2022-10-14T06:51:24.846Z,53.38
2022-10-14T06:53:53.097Z,48.88
2022-10-14T06:56:21.343Z,49.08
2022-10-14T06:58:49.612Z,47.05
2022-10-14T07:01:18.015Z,39.85
2022-10-14T07:03:49.032Z,38.42
2022-10-14T07:06:18.858Z,37.00
2022-10-14T07:08:47.126Z,36.60
2022-10-14T07:11:15.433Z,34.70
2022-10-14T07:13:43.717Z,37.25
2022-10-14T07:16:12.478Z,32.95
2022-10-14T07:18:40.763Z,28.98
2022-10-14T07:21:10.434Z,33.63
2022-10-14T07:23:38.659Z,31.45
2022-10-14T07:26:07.215Z,29.30
2022-10-14T07:28:35.481Z,31.00
2022-10-14T07:31:06.382Z,27.33
2022-10-14T07:36:05.597Z,29.38
2022-10-14T07:38:35.237Z,28.23
2022-10-14T07:41:05.716Z,24.75
2022-10-14T07:43:34.819Z,30.38
2022-10-14T07:46:05.133Z,25.83
2022-10-14T07:48:52.383Z,28.13
2022-10-14T07:51:22.673Z,26.05
2022-10-14T07:53:53.173Z,24.58
2022-10-14T07:56:22.447Z,26.98
2022-10-14T07:58:50.658Z,21.52
2022-10-14T08:01:19.503Z,20.67
2022-10-14T08:03:49.356Z,19.67
2022-10-14T08:06:18.230Z,19.02
2022-10-14T08:08:46.617Z,20.48
2022-10-14T08:11:18.629Z,20.77
2022-10-14T08:13:47.833Z,21.60
2022-10-14T08:16:37.092Z,21.58
2022-10-14T08:19:35.283Z,22.80
2022-10-14T08:22:03.549Z,17.80
2022-10-14T08:24:31.915Z,17.33
2022-10-14T08:27:01.533Z,18.73
2022-10-14T08:29:29.849Z,15.93
2022-10-14T08:31:58.089Z,20.70
2022-10-14T08:34:26.697Z,22.70
2022-10-14T08:36:55.001Z,20.95
2022-10-14T08:39:23.428Z,20.88
2022-10-14T08:42:29.507Z,18.63
2022-10-14T08:45:02.501Z,16.08
2022-10-14T08:47:36.813Z,18.98
2022-10-14T08:50:09.327Z,18.83
2022-10-14T08:52:42.836Z,20.83
2022-10-14T08:55:26.806Z,17.88
2022-10-14T08:58:01.648Z,17.33
2022-10-14T09:00:33.508Z,17.55
2022-10-14T09:03:11.549Z,18.33
2022-10-14T09:05:41.052Z,17.15
2022-10-14T09:08:17.351Z,14.20
2022-10-14T09:10:46.147Z,18.10
2022-10-14T09:13:21.204Z,15.45
2022-10-14T09:15:55.662Z,19.63
2022-10-14T09:18:29.016Z,15.15
2022-10-14T09:20:58.867Z,18.63
2022-10-14T09:23:29.507Z,16.05
2022-10-14T09:25:59.900Z,16.85
2022-10-14T09:28:36.565Z,18.02
2022-10-14T09:31:06.157Z,17.55
2022-10-14T09:39:54.895Z,17.23
2022-10-14T09:43:21.811Z,17.48
2022-10-14T09:46:58.682Z,17.67
2022-10-14T09:50:01.919Z,17.85
2022-10-14T09:52:31.427Z,19.88
2022-10-14T09:55:01.933Z,20.90
2022-10-14T09:57:30.395Z,19.88
2022-10-14T10:00:01.738Z,21.58
2022-10-14T10:02:42.021Z,19.58
2022-10-14T10:05:14.078Z,19.23
2022-10-14T10:07:42.402Z,18.23
2022-10-14T10:10:25.989Z,16.15
2022-10-14T10:13:48.020Z,21.70
2022-10-14T10:17:10.045Z,20.15
2022-10-14T10:21:07.654Z,19.77
2022-10-14T10:24:30.926Z,21.50
2022-10-14T10:27:55.661Z,20.50
2022-10-14T10:31:05.472Z,20.48
2022-10-14T10:34:54.268Z,22.98
2022-10-14T10:37:31.515Z,24.05
2022-10-14T10:40:27.799Z,27.08
2022-10-14T10:43:14.770Z,26.60
2022-10-14T10:45:58.567Z,27.95
2022-10-14T10:48:33.451Z,23.98
2022-10-14T10:51:07.849Z,23.83
2022-10-14T10:54:55.008Z,26.58
2022-10-14T10:58:10.756Z,27.95
2022-10-14T11:01:02.836Z,27.23
2022-10-14T11:03:50.374Z,27.17
2022-10-14T11:06:38.392Z,25.95
2022-10-14T11:09:32.656Z,29.17
2022-10-14T11:12:13.129Z,25.52
2022-10-14T11:15:14.333Z,20.40
2022-10-14T11:17:50.061Z,22.55
2022-10-14T11:20:30.170Z,19.00
2022-10-14T11:23:11.132Z,19.27
2022-10-14T11:25:49.272Z,17.88
2022-10-14T11:28:27.688Z,17.27
2022-10-14T11:31:04.769Z,16.60
2022-10-14T11:33:41.089Z,15.75
2022-10-14T11:36:22.514Z,15.50
2022-10-14T11:39:09.978Z,13.55
2022-10-14T11:41:52.494Z,13.88
2022-10-14T11:44:28.434Z,11.27
2022-10-14T11:47:03.179Z,10.50
2022-10-14T11:49:34.995Z,9.55
2022-10-14T11:52:07.806Z,8.23
2022-10-14T11:54:40.968Z,8.25
2022-10-14T11:57:17.304Z,9.60
2022-10-14T11:59:49.913Z,9.80
2022-10-14T12:02:34.562Z,6.95
2022-10-14T12:05:41.839Z,7.32
2022-10-14T12:08:22.049Z,8.93
2022-10-14T12:10:54.888Z,7.47
2022-10-14T12:13:32.541Z,7.93
2022-10-14T12:16:02.193Z,8.60
2022-10-14T12:18:33.543Z,7.55
2022-10-14T12:21:11.512Z,6.25
2022-10-14T12:23:43.420Z,5.57
2022-10-14T12:26:18.123Z,5.65
2022-10-14T12:28:46.687Z,6.00
2022-10-14T12:31:23.181Z,4.85
2022-10-14T12:34:26.132Z,4.63
2022-10-14T12:36:54.434Z,5.22
2022-10-14T12:39:31.541Z,2.80
2022-10-14T12:42:03.299Z,3.08
2022-10-14T12:44:37.686Z,3.78
2022-10-14T12:47:06.414Z,5.32
2022-10-14T12:49:37.995Z,3.70
2022-10-14T12:52:09.923Z,2.95
2022-10-14T12:54:47.344Z,6.97
2022-10-14T12:57:27.076Z,4.97
2022-10-14T12:59:57.465Z,3.83
2022-10-14T13:02:33.588Z,4.25
2022-10-14T13:05:06.857Z,4.40
2022-10-14T13:07:45.810Z,5.07
2022-10-14T13:10:52.522Z,3.70
2022-10-14T13:14:32.937Z,4.18
2022-10-14T13:18:23.211Z,4.13
2022-10-14T13:21:49.670Z,3.92
2022-10-14T13:24:53.008Z,3.05
2022-10-14T13:28:03.258Z,3.25
2022-10-14T13:30:48.456Z,3.97
2022-10-14T13:34:03.694Z,4.90
2022-10-14T13:37:46.138Z,3.83
2022-10-14T13:41:47.650Z,6.95
2022-10-14T13:44:41.858Z,3.80
2022-10-14T13:47:43.994Z,4.95
2022-10-14T13:51:11.430Z,5.10
2022-10-14T13:55:31.696Z,5.05
2022-10-14T13:58:40.924Z,5.95
2022-10-14T14:02:03.388Z,7.15
2022-10-14T14:05:26.612Z,4.97
2022-10-14T14:08:52.140Z,4.80
2022-10-14T14:12:14.151Z,5.35
2022-10-14T14:15:29.926Z,5.57
2022-10-14T14:19:19.906Z,5.40
2022-10-14T14:22:42.778Z,6.00
2022-10-14T14:26:18.898Z,7.45
2022-10-14T14:30:09.375Z,5.88
2022-10-14T14:33:29.020Z,4.47
2022-10-14T14:40:36.604Z,9.82
2022-10-14T14:43:47.322Z,8.50
2022-10-14T14:46:32.483Z,5.68
2022-10-14T14:49:01.442Z,9.35
2022-10-14T14:51:34.779Z,10.48
2022-10-14T14:54:04.667Z,7.97
2022-10-14T14:56:36.073Z,6.43
2022-10-14T14:59:09.158Z,8.25
2022-10-14T15:01:44.065Z,8.32
2022-10-14T15:04:19.047Z,8.60
2022-10-14T15:06:52.030Z,7.28
2022-10-14T15:09:52.184Z,8.50
2022-10-14T15:13:04.741Z,7.60
2022-10-14T15:20:01.448Z,12.05
2022-10-14T15:23:25.980Z,9.93
2022-10-14T15:34:04.649Z,10.77
2022-10-14T15:38:16.072Z,9.98
2022-10-14T15:41:23.696Z,10.90
2022-10-14T15:45:01.957Z,14.70
2022-10-14T15:48:31.535Z,14.90
2022-10-14T15:55:11.173Z,14.20
2022-10-14T16:02:20.383Z,13.43
2022-10-14T16:05:39.879Z,16.52
2022-10-14T16:09:21.507Z,12.90
2022-10-14T16:16:13.465Z,16.13
2022-10-14T16:26:16.701Z,17.38
2022-10-14T16:33:14.295Z,13.95
2022-10-14T16:36:25.630Z,16.73
2022-10-14T16:39:37.587Z,20.80
2022-10-14T16:42:46.723Z,19.75
2022-10-14T16:45:53.833Z,19.38
2022-10-14T16:48:22.121Z,17.30
2022-10-14T16:50:52.301Z,24.42
2022-10-14T16:53:39.310Z,19.20
2022-10-14T16:56:30.864Z,20.42
2022-10-14T16:58:59.824Z,25.00
2022-10-14T17:01:31.246Z,28.13
2022-10-14T17:04:00.758Z,27.80
2022-10-14T17:06:33.147Z,34.83
2022-10-14T17:09:03.055Z,33.80
2022-10-14T17:12:11.222Z,32.40
2022-10-14T17:16:00.917Z,37.03
2022-10-14T17:19:24.079Z,28.85
2022-10-14T17:23:41.352Z,31.42
2022-10-14T17:26:55.375Z,33.50
2022-10-14T17:30:17.930Z,33.78
2022-10-14T17:37:51.490Z,39.63
2022-10-14T17:40:44.193Z,34.88
2022-10-14T17:44:18.380Z,33.90
2022-10-14T17:53:37.318Z,39.45
2022-10-14T17:58:07.521Z,34.38
2022-10-14T18:02:00.994Z,40.33
2022-10-14T18:08:15.206Z,46.15
2022-10-14T18:12:08.368Z,44.10
2022-10-14T18:15:34.070Z,47.97
2022-10-14T18:18:42.052Z,53.45
2022-10-14T18:21:43.875Z,48.88
2022-10-14T18:24:51.507Z,44.15
2022-10-14T18:31:37.864Z,55.53
2022-10-14T18:35:27.897Z,58.78
2022-10-14T18:42:41.926Z,52.47
2022-10-14T18:49:23.829Z,53.63
2022-10-14T18:52:39.241Z,51.58
2022-10-14T18:56:26.772Z,63.53
2022-10-14T18:59:43.183Z,60.95
2022-10-14T19:03:05.207Z,65.05
2022-10-14T19:09:37.148Z,64.78
2022-10-14T19:14:32.312Z,67.00
2022-10-14T19:16:39.425Z,69.03
2022-10-14T19:20:09.083Z,73.13
2022-10-14T19:23:43.214Z,69.93
2022-10-14T19:26:59.291Z,72.03
2022-10-14T19:30:16.521Z,71.10
2022-10-14T19:37:08.304Z,82.38
2022-10-14T19:40:35.113Z,75.95
2022-10-14T19:43:51.089Z,79.20
2022-10-14T19:46:50.730Z,84.68
2022-10-14T19:50:09.249Z,80.57
2022-10-14T19:53:18.101Z,79.00
2022-10-14T19:59:53.491Z,80.55
2022-10-14T20:03:34.028Z,81.68
2022-10-14T20:10:05.385Z,79.93
2022-10-14T20:17:02.643Z,70.07
2022-10-14T20:25:07.274Z,66.47
2022-10-14T20:29:17.612Z,64.80
2022-10-14T20:32:54.630Z,73.57
2022-10-14T20:35:50.887Z,85.00
2022-10-14T20:39:47.680Z,86.20
2022-10-14T20:42:55.547Z,76.63
2022-10-14T20:50:21.023Z,84.15
2022-10-14T20:56:49.858Z,80.50
2022-10-14T20:58:48.273Z,79.65
2022-10-14T21:05:12.007Z,85.75
2022-10-14T21:08:23.394Z,74.80
2022-10-14T21:14:50.459Z,72.55
2022-10-14T21:18:03.828Z,72.45
2022-10-14T21:21:17.384Z,64.80
2022-10-14T21:24:44.679Z,73.07
2022-10-14T21:31:37.332Z,63.28
2022-10-14T21:43:36.766Z,49.03
2022-10-14T21:46:56.389Z,46.78
2022-10-14T21:50:30.363Z,46.03
2022-10-14T21:53:48.320Z,40.22
2022-10-14T21:56:57.882Z,39.55
2022-10-14T22:00:37.001Z,40.90
2022-10-14T22:03:57.281Z,42.17
2022-10-14T22:17:42.860Z,42.42
2022-10-14T22:21:19.005Z,47.20
2022-10-14T22:27:58.795Z,44.80
2022-10-14T22:31:01.797Z,45.25
2022-10-14T22:34:08.992Z,40.72
2022-10-14T22:42:01.506Z,43.70
2022-10-14T22:48:45.099Z,45.08
2022-10-14T22:51:48.793Z,43.67
2022-10-14T22:55:32.899Z,47.22
2022-10-14T22:59:10.659Z,48.40
2022-10-14T23:06:45.762Z,49.85
2022-10-14T23:09:55.563Z,46.88
2022-10-14T23:23:39.586Z,53.53
2022-10-14T23:27:15.746Z,53.00
2022-10-14T23:30:54.416Z,48.45
2022-10-14T23:33:58.674Z,54.10
2022-10-14T23:41:03.151Z,49.50
2022-10-14T23:44:21.414Z,53.08
2022-10-14T23:51:42.826Z,57.28
2022-10-14T23:54:15.102Z,52.45
2022-10-14T23:54:49.515Z,49.22
